createdAt,value
2018-06-09T06:19:20.226Z,91.90
2018-06-09T06:22:38.514Z,92.20
2018-06-09T06:29:14.826Z,91.80
2018-06-09T06:32:33.099Z,92.00
2018-06-09T06:35:51.796Z,91.30
2018-06-09T06:39:10.103Z,91.70
2018-06-09T06:42:28.401Z,91.60
2018-06-09T06:45:46.669Z,91.30
2018-06-09T06:52:22.995Z,90.80
2018-06-09T06:55:41.349Z,91.20
2018-06-09T06:58:59.692Z,90.80
2018-06-09T07:02:18.214Z,89.60
2018-06-09T07:08:55.097Z,88.10
2018-06-09T07:15:31.590Z,85.60
2018-06-09T07:18:50.391Z,85.30
2018-06-09T07:22:08.716Z,85.30
2018-06-09T07:25:27.077Z,86.30
2018-06-09T07:28:45.364Z,84.00
2018-06-09T07:32:04.277Z,81.90
2018-06-09T07:35:22.578Z,84.50
2018-06-09T07:38:40.854Z,84.00
2018-06-09T07:42:00.848Z,81.80
2018-06-09T07:45:19.222Z,82.50
2018-06-09T07:48:37.545Z,83.00
2018-06-09T07:51:56.076Z,80.30
2018-06-09T07:58:32.384Z,85.30
2018-06-09T08:01:50.789Z,85.50
2018-06-09T08:05:09.129Z,85.50
2018-06-09T08:08:27.845Z,85.50
2018-06-09T08:11:46.190Z,85.80
2018-06-09T08:18:23.147Z,84.70
2018-06-09T08:21:41.902Z,85.30
2018-06-09T08:25:00.640Z,85.80
2018-06-09T08:28:18.980Z,85.80
2018-06-09T08:31:37.677Z,84.70
2018-06-09T08:38:16.578Z,85.10
2018-06-09T08:41:35.951Z,82.40
2018-06-09T08:44:54.240Z,81.40
2018-06-09T08:48:12.843Z,82.00
2018-06-09T08:51:31.132Z,81.30
2018-06-09T08:54:50.822Z,82.40
2018-06-09T08:58:09.093Z,82.00
2018-06-09T09:08:03.570Z,80.00
2018-06-09T09:11:21.862Z,80.00
2018-06-09T09:14:40.151Z,80.60
2018-06-09T09:17:58.535Z,79.50
2018-06-09T09:21:16.818Z,78.90
2018-06-09T09:24:35.115Z,79.20
2018-06-09T09:27:53.427Z,78.00
2018-06-09T09:31:11.720Z,76.20
2018-06-09T11:52:38.357Z,52.90
2018-06-09T11:55:56.616Z,54.40
2018-06-09T11:59:15.320Z,53.30
2018-06-09T12:02:33.633Z,52.70
2018-06-09T12:05:51.885Z,54.30
2018-06-09T12:09:10.199Z,53.20
2018-06-09T12:12:28.514Z,51.50
2018-06-09T12:15:47.516Z,51.10
2018-06-09T12:19:05.800Z,51.10
2018-06-09T12:22:24.134Z,51.90
2018-06-09T12:25:42.422Z,53.70
2018-06-09T12:29:00.700Z,56.20
2018-06-09T12:35:38.416Z,58.60
2018-06-09T12:38:56.699Z,60.50
2018-06-09T12:42:14.983Z,61.70
2018-06-09T12:45:33.284Z,62.20
2018-06-09T12:48:51.948Z,63.10
2018-06-09T12:52:10.207Z,63.50
2018-06-09T12:55:28.503Z,63.60
2018-06-09T12:58:46.785Z,64.30
2018-06-09T13:08:42.656Z,67.20
2018-06-09T13:12:00.970Z,67.10
2018-06-09T13:15:19.254Z,67.80
2018-06-09T13:18:37.658Z,68.70
2018-06-09T13:25:13.987Z,70.30
2018-06-09T13:28:32.335Z,70.90
2018-06-09T13:31:50.609Z,69.20
2018-06-09T13:35:09.729Z,70.00
2018-06-09T13:41:46.170Z,71.50
2018-06-09T13:45:04.674Z,74.00
2018-06-09T13:48:22.985Z,75.00
2018-06-09T13:51:41.298Z,74.70
2018-06-09T13:54:59.581Z,75.90
2018-06-09T13:58:19.200Z,78.00
2018-06-09T14:01:37.485Z,80.30
2018-06-09T14:04:55.765Z,81.40
2018-06-09T14:08:14.030Z,81.80
2018-06-09T14:11:32.895Z,81.50
2018-06-09T14:14:51.258Z,81.20
2018-06-09T14:18:09.561Z,80.60
2018-06-09T14:21:28.153Z,81.00
2018-06-09T14:24:46.472Z,80.90
2018-06-09T14:28:04.727Z,79.40
2018-06-09T14:31:24.069Z,79.70
2018-06-09T14:34:42.513Z,78.50
2018-06-09T14:38:00.955Z,77.50
2018-06-09T14:41:19.247Z,77.60
2018-06-09T14:44:37.902Z,78.30
2018-06-09T14:47:56.165Z,79.50
2018-06-09T14:51:14.506Z,78.50
2018-06-09T14:54:32.778Z,77.60
2018-06-09T14:57:51.257Z,78.20
2018-06-09T15:01:09.718Z,79.60
2018-06-09T15:04:28.093Z,79.20
2018-06-09T15:07:47.039Z,81.60
2018-06-09T15:14:23.309Z,86.30
2018-06-09T15:17:41.797Z,87.10
2018-06-09T15:21:00.075Z,86.70
2018-06-09T15:24:18.346Z,87.80
2018-06-09T15:27:36.617Z,88.30
2018-06-09T15:30:55.731Z,87.50
2018-06-09T15:34:14.129Z,86.60
2018-06-09T15:37:33.449Z,85.10
2018-06-09T15:40:51.732Z,84.00
2018-06-09T15:44:10.064Z,83.00
2018-06-09T15:47:28.394Z,82.60
2018-06-09T15:54:08.636Z,81.30
2018-06-09T15:57:26.944Z,82.50
2018-06-09T16:00:45.214Z,83.00
2018-06-09T16:04:03.522Z,82.60
2018-06-09T16:07:22.105Z,82.60
2018-06-09T16:10:40.391Z,82.80
2018-06-09T16:13:58.658Z,81.70
2018-06-09T16:17:16.950Z,81.30
2018-06-09T16:20:35.229Z,80.50
2018-06-09T16:23:53.517Z,79.20
2018-06-09T16:27:11.789Z,78.20
2018-06-09T16:30:30.079Z,77.80
2018-06-09T16:33:48.894Z,78.20
2018-06-09T16:37:07.239Z,78.70
2018-06-09T16:43:43.548Z,81.60
2018-06-09T16:47:01.831Z,81.50
2018-06-09T16:50:20.122Z,80.40
2018-06-09T16:53:38.415Z,79.30
2018-06-09T16:56:56.768Z,78.90
2018-06-09T17:00:15.050Z,79.00
2018-06-09T17:03:33.380Z,79.80
2018-06-09T17:06:51.702Z,80.80
2018-06-09T17:10:09.968Z,81.00
2018-06-09T17:13:28.253Z,81.70
2018-06-09T17:16:46.541Z,80.40
2018-06-09T17:20:06.004Z,81.40
2018-06-09T17:23:24.345Z,80.80
2018-06-09T17:30:00.641Z,78.70
2018-06-09T17:36:36.970Z,79.10
2018-06-09T17:39:55.258Z,78.60
2018-06-09T17:43:13.550Z,78.20
2018-06-09T17:46:31.811Z,77.40
2018-06-09T17:49:50.105Z,77.40
2018-06-09T17:53:08.407Z,78.20
2018-06-09T17:56:26.675Z,78.90
2018-06-09T17:59:44.938Z,78.90
2018-06-09T18:03:03.297Z,78.90
2018-06-09T18:06:21.608Z,79.10
2018-06-09T18:09:43.161Z,79.80
2018-06-09T18:13:01.461Z,80.50
2018-06-09T18:16:19.742Z,82.00
2018-06-09T18:19:38.049Z,84.00
2018-06-09T18:22:56.399Z,84.70
2018-06-09T18:26:14.610Z,85.30
